createdAt,value
2022-11-25T00:02:02.909Z,96755.47
2022-11-25T00:05:05.550Z,96765.00
2022-11-25T00:08:07.664Z,96762.00
2022-11-25T00:11:10.119Z,96768.31
2022-11-25T00:14:14.852Z,96773.38
2022-11-25T00:17:16.990Z,96772.97
2022-11-25T00:20:22.520Z,96769.50
2022-11-25T00:23:26.903Z,96786.00
2022-11-25T00:26:34.615Z,96784.03
2022-11-25T00:29:39.289Z,96778.22
2022-11-25T00:32:41.357Z,96781.41
2022-11-25T00:35:43.420Z,96785.69
2022-11-25T00:38:47.206Z,96789.59
2022-11-25T00:42:07.403Z,96784.19
2022-11-25T00:45:10.153Z,96789.03
2022-11-25T00:48:12.336Z,96780.22
2022-11-25T00:51:14.452Z,96795.16
2022-11-25T00:54:16.641Z,96803.41
2022-11-25T00:57:20.791Z,96809.41
2022-11-25T01:00:22.971Z,96813.97
2022-11-25T01:03:25.028Z,96821.94
2022-11-25T01:06:27.807Z,96824.56
2022-11-25T01:09:30.837Z,96831.50
2022-11-25T01:12:32.952Z,96839.25
2022-11-25T01:15:37.556Z,96834.28
2022-11-25T01:18:39.643Z,96840.75
2022-11-25T01:21:41.998Z,96836.00
2022-11-25T01:24:46.700Z,96846.03
2022-11-25T01:27:48.911Z,96840.59
2022-11-25T01:31:03.092Z,96837.44
2022-11-25T01:34:27.060Z,96845.88
2022-11-25T01:37:32.428Z,96851.91
2022-11-25T01:40:34.445Z,96852.75
2022-11-25T01:43:36.803Z,96861.72
2022-11-25T01:47:06.580Z,96867.31
2022-11-25T01:50:10.828Z,96870.16
2022-11-25T01:53:13.017Z,96886.34
2022-11-25T01:56:15.143Z,96892.72
2022-11-25T01:59:17.219Z,96897.97
2022-11-25T02:02:19.335Z,96908.31
2022-11-25T02:05:51.231Z,96921.94
2022-11-25T02:09:01.270Z,96923.16
2022-11-25T02:12:03.475Z,96938.22
2022-11-25T02:15:06.461Z,96937.09
2022-11-25T02:18:08.705Z,96946.06
2022-11-25T02:21:10.775Z,96954.91
2022-11-25T02:24:21.991Z,96962.41
2022-11-25T02:27:24.037Z,96969.69
2022-11-25T02:30:26.159Z,96971.09
2022-11-25T02:33:29.121Z,96972.84
2022-11-25T02:36:31.956Z,96982.03
2022-11-25T02:39:34.012Z,96989.34
2022-11-25T02:42:36.139Z,96998.28
2022-11-25T02:46:01.064Z,96999.59
2022-11-25T02:49:10.841Z,97000.44
2022-11-25T02:52:13.830Z,97009.31
2022-11-25T02:55:17.274Z,97016.84
2022-11-25T02:58:19.488Z,97023.81
2022-11-25T03:01:21.673Z,97025.09
2022-11-25T03:04:25.253Z,97041.69
2022-11-25T03:07:27.350Z,97047.84
2022-11-25T03:10:30.146Z,97060.19
2022-11-25T03:13:34.219Z,97071.03
2022-11-25T03:16:36.356Z,97081.91
2022-11-25T03:19:39.544Z,97095.72
2022-11-25T03:22:42.789Z,97097.84
2022-11-25T03:25:44.892Z,97108.88
2022-11-25T03:28:46.922Z,97108.03
2022-11-25T03:31:49.132Z,97123.72
2022-11-25T03:34:51.381Z,97116.19
2022-11-25T03:37:53.591Z,97148.91
2022-11-25T03:40:55.656Z,97151.59
2022-11-25T03:43:57.814Z,97169.19
2022-11-25T03:46:59.940Z,97186.94
2022-11-25T03:50:03.445Z,97210.69
2022-11-25T03:53:05.662Z,97208.66
2022-11-25T03:56:08.149Z,97205.56
2022-11-25T03:59:10.430Z,97216.41
2022-11-25T04:02:14.324Z,97222.13
2022-11-25T04:05:16.465Z,97229.38
2022-11-25T04:08:18.600Z,97232.50
2022-11-25T04:11:21.500Z,97251.75
2022-11-25T04:14:30.735Z,97261.16
2022-11-25T04:17:33.282Z,97279.16
2022-11-25T04:20:35.775Z,97275.81
2022-11-25T04:23:40.281Z,97294.47
2022-11-25T04:26:46.269Z,97310.97
2022-11-25T04:29:48.442Z,97315.84
2022-11-25T04:32:51.010Z,97330.13
2022-11-25T04:35:53.100Z,97343.75
2022-11-25T04:38:55.945Z,97357.69
2022-11-25T04:42:16.557Z,97370.16
2022-11-25T04:45:23.699Z,97375.84
2022-11-25T04:48:28.873Z,97393.53
2022-11-25T04:51:31.752Z,97397.50
2022-11-25T04:54:37.446Z,97409.69
2022-11-25T04:57:39.634Z,97412.28
2022-11-25T05:00:41.995Z,97416.56
2022-11-25T05:03:54.496Z,97424.47
2022-11-25T05:07:00.017Z,97421.59
2022-11-25T05:10:02.906Z,97434.88
2022-11-25T05:13:18.329Z,97438.44
2022-11-25T05:16:20.591Z,97440.88
2022-11-25T05:19:22.837Z,97439.41
2022-11-25T05:22:28.580Z,97445.53
2022-11-25T05:25:31.163Z,97448.53
2022-11-25T05:29:00.036Z,97458.72
2022-11-25T05:32:05.348Z,97472.84
2022-11-25T05:35:08.332Z,97477.53
2022-11-25T05:38:10.665Z,97490.47
2022-11-25T05:41:13.709Z,97493.66
2022-11-25T05:44:22.653Z,97511.38
2022-11-25T05:47:26.874Z,97512.56
2022-11-25T05:50:29.383Z,97523.81
2022-11-25T05:53:51.473Z,97536.81
2022-11-25T05:56:55.996Z,97543.16
2022-11-25T06:00:09.762Z,97545.63
2022-11-25T06:03:19.593Z,97551.78
2022-11-25T06:06:22.101Z,97562.63
2022-11-25T06:09:24.361Z,97579.47
2022-11-25T06:12:26.731Z,97582.50
2022-11-25T06:15:29.409Z,97590.25
2022-11-25T06:18:33.365Z,97590.78
2022-11-25T06:21:35.396Z,97617.91
2022-11-25T06:24:37.842Z,97609.03
2022-11-25T06:28:10.651Z,97619.63
2022-11-25T06:31:20.514Z,97631.59
2022-11-25T06:34:42.031Z,97639.47
2022-11-25T06:37:51.504Z,97642.75
2022-11-25T06:40:56.379Z,97650.84
2022-11-25T06:44:01.230Z,97665.44
2022-11-25T06:47:03.315Z,97658.69
2022-11-25T06:50:06.537Z,97682.84
2022-11-25T06:53:08.659Z,97690.53
2022-11-25T06:56:14.536Z,97690.81
2022-11-25T06:59:16.608Z,97699.53
2022-11-25T07:02:18.766Z,97698.44
2022-11-25T07:05:20.915Z,97698.63
2022-11-25T07:08:25.690Z,97706.56
2022-11-25T07:11:36.197Z,97716.75
2022-11-25T07:14:38.564Z,97722.19
2022-11-25T07:17:40.704Z,97728.19
2022-11-25T07:20:42.901Z,97727.34
2022-11-25T07:23:45.765Z,97739.09
2022-11-25T07:26:47.906Z,97745.88
2022-11-25T07:30:03.510Z,97756.63
2022-11-25T07:33:12.313Z,97768.25
2022-11-25T07:36:14.980Z,97773.53
2022-11-25T07:39:20.181Z,97781.50
2022-11-25T07:42:22.240Z,97792.63
2022-11-25T07:45:24.502Z,97797.88
2022-11-25T07:48:33.908Z,97817.81
2022-11-25T07:51:37.814Z,97832.81
2022-11-25T07:54:39.822Z,97825.53
2022-11-25T07:57:41.901Z,97837.38
2022-11-25T08:00:43.945Z,97844.69
2022-11-25T08:03:47.580Z,97856.84
2022-11-25T08:06:51.971Z,97867.34
2022-11-25T08:09:54.069Z,97872.25
2022-11-25T08:12:56.106Z,97877.88
2022-11-25T08:16:00.167Z,97879.19
2022-11-25T08:19:04.005Z,97887.25
2022-11-25T08:22:06.672Z,97899.38
2022-11-25T08:25:08.986Z,97901.38
2022-11-25T08:28:11.084Z,97901.81
2022-11-25T08:31:21.910Z,97897.34
2022-11-25T08:34:24.602Z,97898.31
2022-11-25T08:37:32.579Z,97917.50
2022-11-25T08:40:35.829Z,97921.53
2022-11-25T08:43:37.916Z,97918.09
2022-11-25T08:46:40.133Z,97925.53
2022-11-25T08:49:42.250Z,97932.75
2022-11-25T08:52:44.449Z,97937.59
2022-11-25T08:55:46.494Z,97937.72
2022-11-25T08:58:51.670Z,97939.16
2022-11-25T09:01:53.810Z,97948.09
2022-11-25T09:04:55.896Z,97949.69
2022-11-25T09:07:57.992Z,97954.25
2022-11-25T09:11:00.405Z,97954.13
2022-11-25T09:14:02.624Z,97950.31
2022-11-25T09:17:10.544Z,97965.47
2022-11-25T09:20:12.784Z,97965.38
2022-11-25T09:23:15.045Z,97969.38
2022-11-25T09:26:32.095Z,97981.66
2022-11-25T09:29:34.536Z,97979.97
2022-11-25T09:32:36.760Z,97990.81
2022-11-25T09:35:38.877Z,97998.53
2022-11-25T09:38:44.019Z,97992.78
2022-11-25T09:42:46.335Z,97994.63
2022-11-25T09:46:41.912Z,98006.72
2022-11-25T09:50:00.436Z,98016.25
2022-11-25T09:53:34.102Z,98014.88
2022-11-25T09:56:45.489Z,98027.69
2022-11-25T10:00:07.567Z,98033.44
2022-11-25T10:03:42.657Z,98046.69
2022-11-25T10:06:55.815Z,98049.97
2022-11-25T10:09:58.192Z,98051.03
2022-11-25T10:13:00.241Z,98052.94
2022-11-25T10:16:04.084Z,98054.31
2022-11-25T10:19:53.206Z,98054.31
2022-11-25T10:23:05.118Z,98069.41
2022-11-25T10:26:15.951Z,98066.63
2022-11-25T10:29:24.452Z,98063.16
2022-11-25T10:32:28.113Z,98076.09
2022-11-25T10:35:39.212Z,98077.84
2022-11-25T10:39:19.248Z,98077.06
2022-11-25T10:42:23.869Z,98083.66
2022-11-25T10:45:32.093Z,98095.34
2022-11-25T10:49:07.969Z,98103.06
2022-11-25T10:52:13.966Z,98101.09
2022-11-25T10:55:36.889Z,98103.63
2022-11-25T10:58:40.270Z,98098.97
2022-11-25T11:01:42.616Z,98106.69
2022-11-25T11:04:58.112Z,98104.28
2022-11-25T11:08:12.293Z,98116.91
2022-11-25T11:11:20.518Z,98132.72
2022-11-25T11:14:22.670Z,98133.53
2022-11-25T11:17:36.766Z,98139.22
2022-11-25T11:20:39.532Z,98148.56
2022-11-25T11:23:53.175Z,98137.28
2022-11-25T11:27:09.651Z,98141.31
2022-11-25T11:30:23.891Z,98143.69
2022-11-25T11:33:34.882Z,98162.13
2022-11-25T11:37:14.216Z,98155.47
2022-11-25T11:40:46.515Z,98153.63
2022-11-25T11:44:20.803Z,98151.44
2022-11-25T11:47:32.814Z,98155.59
2022-11-25T11:50:48.462Z,98146.03
2022-11-25T11:54:07.909Z,98154.44
2022-11-25T11:58:08.515Z,98145.53
2022-11-25T12:01:43.796Z,98161.00
2022-11-25T12:04:53.179Z,98167.81
2022-11-25T12:08:14.241Z,98178.09
2022-11-25T12:11:21.332Z,98174.81
2022-11-25T12:14:46.715Z,98165.94
2022-11-25T12:17:58.842Z,98181.66
2022-11-25T12:21:07.114Z,98182.28
2022-11-25T12:24:34.395Z,98190.34
2022-11-25T12:27:42.652Z,98202.56
2022-11-25T12:31:16.636Z,98218.41
2022-11-25T12:34:41.074Z,98218.91
2022-11-25T12:38:41.532Z,98221.41
2022-11-25T12:41:52.408Z,98219.47
2022-11-25T12:45:15.749Z,98226.31
2022-11-25T12:48:21.439Z,98233.81
2022-11-25T12:51:42.456Z,98228.31
2022-11-25T12:55:13.857Z,98239.09
2022-11-25T12:58:41.254Z,98236.88
2022-11-25T13:02:10.998Z,98251.84
2022-11-25T13:05:41.321Z,98254.88
2022-11-25T13:08:46.061Z,98247.97
2022-11-25T13:12:03.498Z,98248.06
2022-11-25T13:15:32.401Z,98264.63
2022-11-25T13:18:35.045Z,98261.97
2022-11-25T13:21:37.094Z,98270.97
2022-11-25T13:24:40.712Z,98282.16
2022-11-25T13:27:42.926Z,98268.44
2022-11-25T13:30:46.868Z,98280.06
2022-11-25T13:33:48.832Z,98280.75
2022-11-25T13:36:53.064Z,98297.38
2022-11-25T13:40:25.485Z,98283.09
2022-11-25T13:43:27.695Z,98287.16
2022-11-25T13:46:43.669Z,98295.53
2022-11-25T13:50:03.861Z,98297.19
2022-11-25T13:53:08.350Z,98310.78
2022-11-25T13:56:35.859Z,98297.63
2022-11-25T13:59:43.584Z,98304.22
2022-11-25T14:02:47.178Z,98302.09
2022-11-25T14:06:29.893Z,98298.97
2022-11-25T14:10:00.394Z,98314.38
2022-11-25T14:13:27.812Z,98310.31
2022-11-25T14:16:38.763Z,98315.09
2022-11-25T14:20:34.011Z,98317.59
2022-11-25T14:24:16.264Z,98333.81
2022-11-25T14:27:29.220Z,98337.75
2022-11-25T14:30:31.601Z,98345.72
2022-11-25T14:33:37.992Z,98352.25
2022-11-25T14:36:48.945Z,98347.97
2022-11-25T14:39:56.572Z,98348.81
2022-11-25T14:43:03.961Z,98352.28
2022-11-25T14:46:15.696Z,98363.81
2022-11-25T14:49:44.915Z,98373.50
2022-11-25T14:52:40.576Z,98379.91
2022-11-25T14:55:42.808Z,98379.72
2022-11-25T14:58:49.407Z,98388.22
2022-11-25T15:01:54.197Z,98403.97
2022-11-25T15:05:08.117Z,98406.09
2022-11-25T15:08:14.727Z,98406.94
2022-11-25T15:11:19.121Z,98409.81
2022-11-25T15:14:27.795Z,98419.56
2022-11-25T15:17:33.554Z,98431.53
2022-11-25T15:20:35.814Z,98422.44
2022-11-25T15:23:38.003Z,98430.56
2022-11-25T15:26:40.085Z,98435.31
2022-11-25T15:29:43.103Z,98444.50
2022-11-25T15:32:45.144Z,98449.16
2022-11-25T15:35:47.444Z,98461.28
2022-11-25T15:38:49.513Z,98466.25
2022-11-25T15:41:56.491Z,98477.09
2022-11-25T15:45:07.057Z,98480.41
2022-11-25T15:48:26.117Z,98484.75
2022-11-25T15:52:09.272Z,98495.78
2022-11-25T15:55:38.363Z,98513.25
2022-11-25T15:58:42.364Z,98515.91
2022-11-25T16:01:44.469Z,98522.59
2022-11-25T16:04:46.549Z,98525.34
2022-11-25T16:07:51.750Z,98533.47
2022-11-25T16:10:56.750Z,98541.44
2022-11-25T16:14:28.219Z,98549.47
2022-11-25T16:17:31.664Z,98564.38
2022-11-25T16:20:33.723Z,98574.63
2022-11-25T16:23:36.869Z,98572.94
2022-11-25T16:26:58.337Z,98586.75
2022-11-25T16:30:06.432Z,98584.44
2022-11-25T16:33:10.649Z,98584.22
2022-11-25T16:36:12.673Z,98593.31
2022-11-25T16:39:14.812Z,98597.78
2022-11-25T16:42:21.476Z,98607.22
2022-11-25T16:45:26.130Z,98605.97
2022-11-25T16:48:28.194Z,98616.03
2022-11-25T16:51:30.313Z,98619.13
2022-11-25T16:54:33.854Z,98631.22
2022-11-25T16:57:36.041Z,98625.72
2022-11-25T17:00:38.072Z,98635.53
2022-11-25T17:03:40.122Z,98635.38
2022-11-25T17:06:50.552Z,98650.41
2022-11-25T17:09:56.257Z,98648.22
2022-11-25T17:12:58.344Z,98660.44
2022-11-25T17:16:00.595Z,98658.50
2022-11-25T17:19:02.847Z,98663.03
2022-11-25T17:22:17.146Z,98672.47
2022-11-25T17:25:21.115Z,98680.03
2022-11-25T17:28:23.196Z,98679.75
2022-11-25T17:31:30.909Z,98690.06
2022-11-25T17:34:38.034Z,98691.97
2022-11-25T17:37:47.094Z,98703.56
2022-11-25T17:40:50.565Z,98703.25
2022-11-25T17:43:53.751Z,98692.31
2022-11-25T17:46:58.030Z,98690.31
2022-11-25T17:50:00.094Z,98703.78
2022-11-25T17:53:02.158Z,98707.66
2022-11-25T17:56:24.774Z,98714.72
2022-11-25T17:59:31.813Z,98709.94
2022-11-25T18:02:34.023Z,98725.94
2022-11-25T18:05:36.344Z,98712.34
2022-11-25T18:08:43.511Z,98728.66
2022-11-25T18:11:54.596Z,98732.84
2022-11-25T18:14:56.713Z,98723.38
2022-11-25T18:18:05.722Z,98727.13
2022-11-25T18:21:09.201Z,98729.00
2022-11-25T18:24:11.477Z,98744.38
2022-11-25T18:27:26.938Z,98735.34
2022-11-25T18:30:30.800Z,98738.56
2022-11-25T18:33:33.040Z,98743.09
2022-11-25T18:36:35.268Z,98748.63
2022-11-25T18:39:37.473Z,98740.75
2022-11-25T18:42:40.788Z,98753.06
2022-11-25T18:45:43.237Z,98758.75
2022-11-25T18:48:45.492Z,98758.34
2022-11-25T18:51:47.693Z,98765.56
2022-11-25T18:54:49.966Z,98765.69
2022-11-25T18:57:52.418Z,98766.56
2022-11-25T19:01:00.825Z,98763.13
2022-11-25T19:04:04.437Z,98771.59
2022-11-25T19:07:06.664Z,98759.38
2022-11-25T19:10:13.513Z,98766.34
2022-11-25T19:13:33.734Z,98795.91
2022-11-25T19:16:36.097Z,98797.94
2022-11-25T19:19:39.277Z,98787.31
2022-11-25T19:22:41.584Z,98784.53
2022-11-25T19:25:43.809Z,98796.50
2022-11-25T19:28:47.265Z,98794.69
2022-11-25T19:31:50.258Z,98816.09
2022-11-25T19:35:01.207Z,98825.94
2022-11-25T19:38:18.582Z,98822.63
2022-11-25T19:41:20.752Z,98837.84
2022-11-25T19:44:23.027Z,98826.06
2022-11-25T19:47:26.180Z,98850.78
2022-11-25T19:50:28.391Z,98862.97
2022-11-25T19:53:34.074Z,98857.31
2022-11-25T19:56:37.716Z,98881.75
2022-11-25T19:59:39.784Z,98878.03
2022-11-25T20:02:42.490Z,98886.94
2022-11-25T20:05:44.651Z,98892.66
2022-11-25T20:08:47.078Z,98899.88
2022-11-25T20:11:54.178Z,98903.91
2022-11-25T20:14:56.327Z,98903.22
2022-11-25T20:18:00.082Z,98899.28
2022-11-25T20:21:04.128Z,98910.44
2022-11-25T20:24:16.670Z,98901.38
2022-11-25T20:27:18.744Z,98905.84
2022-11-25T20:30:26.713Z,98918.69
2022-11-25T20:33:28.725Z,98927.59
2022-11-25T20:36:31.890Z,98930.31
2022-11-25T20:39:33.935Z,98922.56
2022-11-25T20:42:35.985Z,98926.22
2022-11-25T20:45:38.195Z,98937.00
2022-11-25T20:48:40.275Z,98946.94
2022-11-25T20:51:42.533Z,98939.88
2022-11-25T20:54:44.698Z,98945.84
2022-11-25T20:57:47.037Z,98939.81
2022-11-25T21:00:54.154Z,98933.50
2022-11-25T21:03:59.199Z,98933.47
2022-11-25T21:07:01.372Z,98935.25
2022-11-25T21:10:04.078Z,98943.16
2022-11-25T21:13:14.725Z,98942.88
2022-11-25T21:16:16.837Z,98951.66
2022-11-25T21:19:18.961Z,98955.09
2022-11-25T21:22:21.031Z,98968.50
2022-11-25T21:25:23.113Z,98969.72
2022-11-25T21:28:25.742Z,98971.84
2022-11-25T21:31:27.886Z,98961.69
2022-11-25T21:34:29.996Z,98976.03
2022-11-25T21:37:35.653Z,98973.78
2022-11-25T21:40:42.758Z,98981.38
2022-11-25T21:43:46.723Z,98988.13
2022-11-25T21:46:48.842Z,98986.28
2022-11-25T21:49:51.078Z,98989.44
2022-11-25T21:52:53.115Z,98984.78
2022-11-25T21:55:55.178Z,98996.31
2022-11-25T21:58:58.437Z,98992.38
2022-11-25T22:02:00.493Z,98992.41
2022-11-25T22:05:02.560Z,98999.06
2022-11-25T22:08:04.867Z,99004.41
2022-11-25T22:11:10.942Z,98996.94
2022-11-25T22:14:37.301Z,98994.00
2022-11-25T22:17:40.538Z,98994.94
2022-11-25T22:20:42.936Z,98997.06
2022-11-25T22:23:44.991Z,99022.41
2022-11-25T22:26:49.171Z,99013.41
2022-11-25T22:29:52.426Z,99020.00
2022-11-25T22:33:03.777Z,99018.31
2022-11-25T22:36:06.233Z,99025.22
2022-11-25T22:39:23.629Z,99025.63
2022-11-25T22:42:30.694Z,99029.25
2022-11-25T22:45:33.821Z,99033.31
2022-11-25T22:48:36.856Z,99031.75
2022-11-25T22:51:38.891Z,99031.38
2022-11-25T22:54:41.207Z,99024.88
2022-11-25T22:57:44.600Z,99030.06
2022-11-25T23:00:47.040Z,99034.56
2022-11-25T23:03:49.137Z,99028.22
2022-11-25T23:06:51.173Z,99038.28
2022-11-25T23:09:53.344Z,99035.78
2022-11-25T23:12:55.546Z,99035.25
2022-11-25T23:16:03.924Z,99044.16
2022-11-25T23:19:07.040Z,99046.75
2022-11-25T23:22:12.349Z,99053.97
2022-11-25T23:25:18.984Z,99059.13
2022-11-25T23:28:21.128Z,99068.22
2022-11-25T23:31:25.613Z,99072.69
2022-11-25T23:34:27.684Z,99064.56
2022-11-25T23:37:29.776Z,99065.78
2022-11-25T23:40:31.820Z,99060.13
2022-11-25T23:43:33.906Z,99063.84
2022-11-25T23:46:35.964Z,99074.19
2022-11-25T23:49:40.639Z,99071.22
2022-11-25T23:52:42.866Z,99080.66
2022-11-25T23:55:44.906Z,99083.88
2022-11-25T23:58:47.084Z,99072.66
